createdAt,value
2019-04-25T00:00:11.718Z,93688.02
2019-04-25T00:02:42.301Z,93686.19
2019-04-25T00:05:11.421Z,93684.96
2019-04-25T00:07:38.729Z,93685.55
2019-04-25T00:10:06.313Z,93688.20
2019-04-25T00:12:33.052Z,93679.81
2019-04-25T00:15:01.275Z,93676.23
2019-04-25T00:17:31.470Z,93673.78
2019-04-25T00:19:58.191Z,93679.62
2019-04-25T00:22:29.644Z,93685.23
2019-04-25T00:24:58.089Z,93688.60
2019-04-25T00:27:25.320Z,93689.63
2019-04-25T00:29:51.856Z,93696.97
2019-04-25T00:32:18.696Z,93695.39
2019-04-25T00:34:45.929Z,93696.82
2019-04-25T00:37:13.997Z,93694.98
2019-04-25T00:39:43.485Z,93699.31
2019-04-25T00:42:09.492Z,93696.00
2019-04-25T00:44:36.045Z,93698.95
2019-04-25T00:47:02.780Z,93699.18
2019-04-25T00:49:29.324Z,93706.13
2019-04-25T00:51:55.843Z,93700.18
2019-04-25T00:54:22.734Z,93700.59
2019-04-25T00:56:49.452Z,93699.71
2019-04-25T00:59:18.223Z,93700.54
2019-04-25T01:01:51.846Z,93700.13
2019-04-25T01:04:21.803Z,93694.53
2019-04-25T01:06:48.401Z,93695.05
2019-04-25T01:09:16.850Z,93696.78
2019-04-25T01:11:44.254Z,93695.23
2019-04-25T01:14:11.963Z,93697.08
2019-04-25T01:16:38.673Z,93692.99
2019-04-25T01:19:05.295Z,93689.33
2019-04-25T01:21:31.841Z,93693.52
2019-04-25T01:23:59.042Z,93692.94
2019-04-25T01:26:25.687Z,93699.77
2019-04-25T01:28:53.795Z,93697.31
2019-04-25T01:31:23.296Z,93698.41
2019-04-25T01:33:50.995Z,93695.75
2019-04-25T01:39:24.146Z,93690.22
2019-04-25T01:41:58.671Z,93694.12
2019-04-25T01:44:27.101Z,93699.44
2019-04-25T01:46:54.491Z,93698.71
2019-04-25T01:49:23.850Z,93695.45
2019-04-25T01:51:50.532Z,93698.11
2019-04-25T01:54:17.064Z,93696.47
2019-04-25T01:56:44.326Z,93685.30
2019-04-25T01:59:11.110Z,93688.28
2019-04-25T02:01:39.368Z,93698.30
2019-04-25T02:04:05.892Z,93701.07
2019-04-25T02:06:33.470Z,93699.23
2019-04-25T02:09:01.040Z,93702.92
2019-04-25T02:11:33.933Z,93705.06
2019-04-25T02:14:00.678Z,93709.45
2019-04-25T02:16:27.330Z,93714.14
2019-04-25T02:18:55.109Z,93718.41
2019-04-25T02:21:23.576Z,93715.33
2019-04-25T02:23:50.156Z,93720.53
2019-04-25T02:26:18.573Z,93723.28
2019-04-25T02:28:45.160Z,93725.36
2019-04-25T02:31:11.685Z,93731.91
2019-04-25T02:33:38.241Z,93739.47
2019-04-25T02:36:08.680Z,93751.43
2019-04-25T02:38:34.238Z,93754.27
2019-04-25T02:41:02.798Z,93754.91
2019-04-25T02:43:29.311Z,93755.70
2019-04-25T02:46:15.163Z,93752.44
2019-04-25T02:49:01.410Z,93748.58
2019-04-25T02:51:35.025Z,93750.87
2019-04-25T02:54:04.315Z,93746.80
2019-04-25T02:56:34.844Z,93750.78
2019-04-25T02:58:58.623Z,93749.57
2019-04-25T03:01:26.295Z,93754.47
2019-04-25T03:03:54.530Z,93758.75
2019-04-25T03:06:21.386Z,93760.98
2019-04-25T03:08:47.945Z,93766.30
2019-04-25T03:11:15.109Z,93766.52
2019-04-25T03:13:43.988Z,93764.30
2019-04-25T03:16:11.092Z,93758.17
2019-04-25T03:18:39.739Z,93760.53
2019-04-25T03:21:13.494Z,93758.56
2019-04-25T03:23:36.827Z,93748.45
2019-04-25T03:26:05.192Z,93755.48
2019-04-25T03:28:33.958Z,93744.68
2019-04-25T03:31:02.104Z,93723.45
2019-04-25T03:33:29.237Z,93712.98
2019-04-25T03:35:55.783Z,93710.58
2019-04-25T03:38:24.197Z,93685.54
2019-04-25T03:40:50.855Z,93681.38
2019-04-25T03:43:17.404Z,93676.38
2019-04-25T03:45:45.275Z,93673.22
2019-04-25T03:48:13.885Z,93666.78
2019-04-25T03:50:40.741Z,93660.84
2019-04-25T03:53:07.945Z,93666.38
2019-04-25T03:55:35.945Z,93652.79
2019-04-25T03:58:06.661Z,93664.84
2019-04-25T04:00:31.835Z,93663.84
2019-04-25T04:02:59.016Z,93671.12
2019-04-25T04:05:25.640Z,93679.80
2019-04-25T04:07:53.538Z,93679.92
2019-04-25T04:10:21.233Z,93688.19
2019-04-25T04:12:47.879Z,93696.16
2019-04-25T04:15:15.905Z,93707.02
2019-04-25T04:17:44.873Z,93717.47
2019-04-25T04:20:13.885Z,93722.09
2019-04-25T04:22:43.838Z,93719.39
2019-04-25T04:25:13.871Z,93717.55
2019-04-25T04:27:40.751Z,93717.84
2019-04-25T04:30:08.036Z,93725.64
2019-04-25T04:32:34.644Z,93725.43
2019-04-25T04:35:01.184Z,93723.92
2019-04-25T04:37:27.764Z,93724.14
2019-04-25T04:39:54.319Z,93731.09
2019-04-25T04:42:20.855Z,93731.61
2019-04-25T04:44:47.774Z,93738.48
2019-04-25T04:47:15.383Z,93750.98
2019-04-25T04:49:43.823Z,93747.80
2019-04-25T04:52:10.574Z,93756.89
2019-04-25T04:54:37.137Z,93767.77
2019-04-25T04:57:16.623Z,93766.31
2019-04-25T04:59:33.776Z,93771.02
2019-04-25T05:02:10.635Z,93775.11
2019-04-25T05:04:43.621Z,93776.55
2019-04-25T05:07:29.430Z,93772.23
2019-04-25T05:09:56.008Z,93762.44
2019-04-25T05:12:24.047Z,93763.03
2019-04-25T05:14:50.614Z,93761.63
2019-04-25T05:17:17.619Z,93751.91
2019-04-25T05:19:44.196Z,93744.20
2019-04-25T05:22:10.850Z,93753.52
2019-04-25T05:24:37.382Z,93741.87
2019-04-25T05:27:03.934Z,93732.33
2019-04-25T05:29:30.488Z,93731.20
2019-04-25T05:31:57.018Z,93729.66
2019-04-25T05:34:25.634Z,93723.10
2019-04-25T05:36:53.776Z,93715.52
2019-04-25T05:39:20.538Z,93722.28
2019-04-25T05:41:57.229Z,93708.66
2019-04-25T05:44:25.157Z,93712.03
2019-04-25T05:46:52.233Z,93716.53
2019-04-25T05:49:19.292Z,93715.93
2019-04-25T05:51:46.036Z,93705.42
2019-04-25T05:54:14.055Z,93703.88
2019-04-25T05:56:40.733Z,93712.17
2019-04-25T05:59:07.268Z,93709.17
2019-04-25T06:01:35.550Z,93707.72
2019-04-25T06:04:05.180Z,93711.98
2019-04-25T06:06:30.994Z,93707.98
2019-04-25T06:08:59.447Z,93714.81
2019-04-25T06:11:33.846Z,93724.02
2019-04-25T06:14:03.377Z,93724.44
2019-04-25T06:16:33.229Z,93734.75
2019-04-25T06:19:11.856Z,93725.47
2019-04-25T06:21:28.516Z,93731.92
2019-04-25T06:24:05.697Z,93737.25
2019-04-25T06:26:39.617Z,93741.55
2019-04-25T06:29:03.283Z,93745.41
2019-04-25T06:31:29.961Z,93747.78
2019-04-25T06:33:56.504Z,93743.70
2019-04-25T06:36:24.532Z,93748.05
2019-04-25T06:38:51.496Z,93751.72
2019-04-25T06:41:18.027Z,93749.38
2019-04-25T06:43:46.485Z,93760.70
2019-04-25T06:46:20.210Z,93755.81
2019-04-25T06:48:51.249Z,93752.77
2019-04-25T06:51:18.058Z,93753.76
2019-04-25T06:53:44.796Z,93746.94
2019-04-25T06:56:13.673Z,93755.33
2019-04-25T06:58:40.615Z,93744.00
2019-04-25T07:01:08.007Z,93747.27
2019-04-25T07:03:35.769Z,93749.42
2019-04-25T07:06:03.254Z,93741.74
2019-04-25T07:08:30.048Z,93740.38
2019-04-25T07:10:56.659Z,93740.23
2019-04-25T07:13:24.695Z,93736.75
2019-04-25T07:15:53.308Z,93731.62
2019-04-25T07:18:20.547Z,93731.98
2019-04-25T07:20:47.086Z,93723.47
2019-04-25T07:23:13.674Z,93720.08
2019-04-25T07:25:43.694Z,93723.73
2019-04-25T07:28:23.888Z,93725.61
2019-04-25T07:31:03.622Z,93727.87
2019-04-25T07:33:33.588Z,93722.34
2019-04-25T07:36:00.706Z,93718.91
2019-04-25T07:38:27.329Z,93713.50
2019-04-25T07:40:54.194Z,93717.85
2019-04-25T07:43:20.817Z,93717.75
2019-04-25T07:45:48.039Z,93719.20
2019-04-25T07:48:16.453Z,93717.42
2019-04-25T07:50:44.925Z,93713.87
2019-04-25T07:53:11.493Z,93707.94
2019-04-25T07:55:38.833Z,93718.81
2019-04-25T07:58:05.686Z,93713.63
2019-04-25T08:00:35.135Z,93716.38
2019-04-25T08:03:01.494Z,93712.62
2019-04-25T08:05:29.510Z,93718.02
2019-04-25T08:07:56.422Z,93718.18
2019-04-25T08:10:27.984Z,93718.14
2019-04-25T08:12:56.647Z,93716.91
2019-04-25T08:15:30.158Z,93722.38
2019-04-25T08:18:05.988Z,93715.84
2019-04-25T08:20:44.502Z,93725.01
2019-04-25T08:23:16.098Z,93724.38
2019-04-25T08:25:44.149Z,93717.41
2019-04-25T08:28:13.694Z,93721.22
2019-04-25T08:30:43.591Z,93724.72
2019-04-25T08:33:10.248Z,93724.98
2019-04-25T08:35:36.957Z,93725.28
2019-04-25T08:38:05.810Z,93716.67
2019-04-25T08:40:33.128Z,93714.38
2019-04-25T08:43:01.605Z,93726.48
2019-04-25T08:45:28.272Z,93725.95
2019-04-25T08:47:54.975Z,93730.08
2019-04-25T08:50:33.140Z,93730.16
2019-04-25T08:52:57.683Z,93735.23
2019-04-25T08:55:44.385Z,93726.67
2019-04-25T08:58:16.522Z,93729.11
2019-04-25T09:01:01.525Z,93722.30
2019-04-25T09:03:45.336Z,93730.20
2019-04-25T09:06:13.662Z,93726.18
2019-04-25T09:08:41.048Z,93723.17
2019-04-25T09:11:07.672Z,93719.09
2019-04-25T09:13:35.802Z,93718.46
2019-04-25T09:16:03.592Z,93715.91
2019-04-25T09:18:30.254Z,93712.37
2019-04-25T09:20:56.786Z,93710.74
2019-04-25T09:23:23.686Z,93714.30
2019-04-25T09:25:50.363Z,93711.59
2019-04-25T09:28:16.898Z,93708.86
2019-04-25T09:30:44.818Z,93705.91
2019-04-25T09:33:13.283Z,93706.70
2019-04-25T09:35:39.941Z,93699.14
2019-04-25T09:38:06.567Z,93708.90
2019-04-25T09:40:34.187Z,93708.08
2019-04-25T09:43:01.225Z,93695.91
2019-04-25T09:45:27.793Z,93691.84
2019-04-25T09:47:56.565Z,93688.89
2019-04-25T09:50:38.235Z,93684.78
2019-04-25T09:53:05.254Z,93679.36
2019-04-25T09:55:49.001Z,93673.27
2019-04-25T09:58:17.443Z,93664.68
2019-04-25T10:00:55.891Z,93661.23
2019-04-25T10:03:23.392Z,93663.95
2019-04-25T10:05:49.978Z,93664.64
2019-04-25T10:08:16.992Z,93665.19
2019-04-25T10:10:44.573Z,93660.55
2019-04-25T10:13:11.165Z,93658.78
2019-04-25T10:15:54.997Z,93654.45
2019-04-25T10:18:23.289Z,93651.20
2019-04-25T10:20:50.398Z,93647.23
2019-04-25T10:23:17.316Z,93642.64
2019-04-25T10:25:45.006Z,93640.08
2019-04-25T10:28:13.240Z,93632.95
2019-04-25T10:30:41.058Z,93634.50
2019-04-25T10:33:07.873Z,93627.56
2019-04-25T10:35:46.682Z,93636.22
2019-04-25T10:38:04.636Z,93624.02
2019-04-25T10:40:33.703Z,93631.53
2019-04-25T10:43:00.720Z,93619.97
2019-04-25T10:45:27.255Z,93622.03
2019-04-25T10:47:55.301Z,93634.05
2019-04-25T10:50:23.864Z,93636.17
2019-04-25T10:52:50.783Z,93631.25
2019-04-25T10:55:17.304Z,93621.75
2019-04-25T10:57:45.480Z,93627.53
2019-04-25T11:00:28.625Z,93627.38
2019-04-25T11:02:57.328Z,93620.41
2019-04-25T11:05:24.024Z,93627.61
2019-04-25T11:07:50.599Z,93617.36
2019-04-25T11:10:17.633Z,93628.30
2019-04-25T11:12:45.452Z,93630.46
2019-04-25T11:15:12.229Z,93619.79
2019-04-25T11:17:38.785Z,93604.62
2019-04-25T11:20:05.721Z,93606.25
2019-04-25T11:22:34.110Z,93602.12
2019-04-25T11:25:00.695Z,93599.72
2019-04-25T11:27:27.629Z,93605.66
2019-04-25T11:30:08.200Z,93608.91
2019-04-25T11:32:25.825Z,93598.72
2019-04-25T11:34:53.523Z,93613.66
2019-04-25T11:37:23.922Z,93608.70
2019-04-25T11:39:56.110Z,93604.41
2019-04-25T11:42:23.665Z,93610.03
2019-04-25T11:44:50.245Z,93608.77
2019-04-25T11:47:16.882Z,93605.87
2019-04-25T11:49:45.387Z,93610.56
2019-04-25T11:52:21.430Z,93608.36
2019-04-25T11:54:41.071Z,93597.59
2019-04-25T11:57:07.596Z,93602.16
2019-04-25T11:59:34.234Z,93596.80
2019-04-25T12:02:00.884Z,93592.25
2019-04-25T12:04:27.541Z,93583.57
2019-04-25T12:06:54.059Z,93581.02
2019-04-25T12:09:20.629Z,93583.52
2019-04-25T12:11:48.391Z,93581.03
2019-04-25T12:14:15.124Z,93576.80
2019-04-25T12:16:41.637Z,93573.89
2019-04-25T12:19:08.177Z,93575.07
2019-04-25T12:21:34.701Z,93566.67
2019-04-25T12:24:03.747Z,93567.27
2019-04-25T12:26:29.683Z,93553.61
2019-04-25T12:28:56.564Z,93560.52
2019-04-25T12:31:23.802Z,93557.74
2019-04-25T12:33:50.427Z,93557.64
2019-04-25T12:36:16.969Z,93545.53
2019-04-25T12:38:44.976Z,93547.58
2019-04-25T12:41:12.082Z,93544.03
2019-04-25T12:43:41.396Z,93542.33
2019-04-25T12:46:14.519Z,93541.34
2019-04-25T12:48:43.200Z,93539.77
2019-04-25T12:51:10.326Z,93531.52
2019-04-25T12:53:37.137Z,93526.55
2019-04-25T12:56:05.237Z,93535.09
2019-04-25T12:58:33.411Z,93530.11
2019-04-25T13:01:00.589Z,93531.34
2019-04-25T13:03:27.263Z,93537.34
2019-04-25T13:05:54.871Z,93527.66
2019-04-25T13:08:24.258Z,93523.09
2019-04-25T13:10:51.046Z,93520.32
2019-04-25T13:13:17.669Z,93516.75
2019-04-25T13:15:45.960Z,93520.77
2019-04-25T13:18:12.740Z,93522.24
2019-04-25T13:20:39.279Z,93521.02
2019-04-25T13:23:07.616Z,93511.75
2019-04-25T13:25:39.048Z,93516.50
2019-04-25T13:28:14.442Z,93511.34
2019-04-25T13:30:41.239Z,93521.08
2019-04-25T13:33:13.318Z,93512.80
2019-04-25T13:35:56.223Z,93508.61
2019-04-25T13:38:22.945Z,93506.60
2019-04-25T13:40:49.581Z,93510.84
2019-04-25T13:43:16.101Z,93506.97
2019-04-25T13:45:42.676Z,93496.95
2019-04-25T13:48:09.312Z,93495.98
2019-04-25T13:50:35.911Z,93498.71
2019-04-25T13:53:03.340Z,93489.88
2019-04-25T13:55:32.114Z,93488.41
2019-04-25T13:57:58.893Z,93486.97
2019-04-25T14:00:26.152Z,93489.28
2019-04-25T14:02:53.182Z,93482.81
2019-04-25T14:05:21.224Z,93479.91
2019-04-25T14:07:47.760Z,93473.58
2019-04-25T14:10:14.325Z,93477.22
2019-04-25T14:12:41.670Z,93478.42
2019-04-25T14:15:10.501Z,93466.72
2019-04-25T14:17:44.876Z,93477.06
2019-04-25T14:20:22.854Z,93472.97
2019-04-25T14:22:50.077Z,93461.72
2019-04-25T14:25:16.814Z,93459.27
2019-04-25T14:27:46.326Z,93454.91
2019-04-25T14:30:15.011Z,93451.52
2019-04-25T14:32:43.506Z,93453.58
2019-04-25T14:35:10.430Z,93457.03
2019-04-25T14:37:39.671Z,93457.91
2019-04-25T14:40:06.035Z,93450.83
2019-04-25T14:42:33.175Z,93442.77
2019-04-25T14:44:59.922Z,93449.87
2019-04-25T14:47:27.410Z,93442.37
2019-04-25T14:49:54.155Z,93455.36
2019-04-25T14:52:20.789Z,93456.34
2019-04-25T14:54:54.992Z,93450.18
2019-04-25T14:57:24.305Z,93445.17
2019-04-25T14:59:51.127Z,93451.55
2019-04-25T15:02:19.032Z,93459.95
2019-04-25T15:04:45.608Z,93454.83
2019-04-25T15:07:12.150Z,93460.00
2019-04-25T15:09:38.691Z,93463.13
2019-04-25T15:12:05.484Z,93466.75
2019-04-25T15:14:32.002Z,93463.94
2019-04-25T15:16:58.601Z,93471.36
2019-04-25T15:19:25.479Z,93467.20
2019-04-25T15:21:52.352Z,93477.80
2019-04-25T15:24:18.886Z,93471.38
2019-04-25T15:26:45.465Z,93468.42
2019-04-25T15:29:12.014Z,93471.33
2019-04-25T15:31:38.603Z,93474.03
2019-04-25T15:34:05.144Z,93476.53
2019-04-25T15:36:42.371Z,93470.33
2019-04-25T15:39:28.883Z,93474.77
2019-04-25T15:42:03.233Z,93469.40
2019-04-25T15:44:30.816Z,93473.73
2019-04-25T15:46:59.348Z,93471.84
2019-04-25T15:49:26.184Z,93470.56
2019-04-25T15:51:52.759Z,93469.17
2019-04-25T15:54:19.301Z,93465.96
2019-04-25T15:56:45.844Z,93463.65
2019-04-25T15:59:12.379Z,93462.92
2019-04-25T16:01:39.021Z,93466.67
2019-04-25T16:04:05.551Z,93464.56
2019-04-25T16:06:32.162Z,93467.70
2019-04-25T16:08:58.728Z,93474.03
2019-04-25T16:11:28.015Z,93479.98
2019-04-25T16:13:54.681Z,93473.60
2019-04-25T16:16:21.259Z,93473.71
2019-04-25T16:18:47.934Z,93472.97
2019-04-25T16:21:14.798Z,93478.11
2019-04-25T16:23:41.341Z,93476.48
2019-04-25T16:26:08.890Z,93475.67
2019-04-25T16:28:36.071Z,93476.53
2019-04-25T16:31:05.088Z,93477.56
2019-04-25T16:33:31.770Z,93476.80
2019-04-25T16:35:59.677Z,93477.05
2019-04-25T16:38:26.317Z,93488.05
2019-04-25T16:40:52.877Z,93488.11
2019-04-25T16:43:21.443Z,93490.83
2019-04-25T16:45:47.981Z,93488.56
2019-04-25T16:48:14.827Z,93491.34
2019-04-25T16:50:42.086Z,93497.02
2019-04-25T16:53:08.927Z,93494.06
2019-04-25T16:55:35.443Z,93489.74
2019-04-25T16:58:02.602Z,93497.31
2019-04-25T17:00:40.833Z,93490.23
2019-04-25T17:03:07.769Z,93496.97
2019-04-25T17:05:34.924Z,93505.85
2019-04-25T17:08:01.479Z,93512.84
2019-04-25T17:10:28.124Z,93512.26
2019-04-25T17:12:54.664Z,93516.98
2019-04-25T17:15:32.098Z,93519.30
2019-04-25T17:18:09.623Z,93524.23
2019-04-25T17:20:38.170Z,93529.64
2019-04-25T17:23:05.619Z,93530.31
2019-04-25T17:25:32.764Z,93526.91
2019-04-25T17:28:01.020Z,93542.22
2019-04-25T17:30:31.214Z,93553.34
2019-04-25T17:33:08.988Z,93543.22
2019-04-25T17:35:40.913Z,93552.83
2019-04-25T17:38:21.987Z,93561.03
2019-04-25T17:40:48.513Z,93561.09
2019-04-25T17:43:15.055Z,93567.77
2019-04-25T17:45:41.813Z,93587.61
2019-04-25T17:48:08.448Z,93582.36
2019-04-25T17:50:34.979Z,93579.92
2019-04-25T17:53:01.518Z,93600.27
2019-04-25T17:55:28.143Z,93584.75
2019-04-25T17:57:54.887Z,93592.53
2019-04-25T18:00:36.430Z,93599.27
2019-04-25T18:03:04.619Z,93607.53
2019-04-25T18:05:31.155Z,93611.84
2019-04-25T18:07:57.743Z,93610.48
2019-04-25T18:10:24.909Z,93623.90
2019-04-25T18:12:51.571Z,93624.16
2019-04-25T18:15:35.322Z,93630.35
2019-04-25T18:18:04.845Z,93624.86
2019-04-25T18:20:37.474Z,93635.64
2019-04-25T18:23:06.063Z,93628.74
2019-04-25T18:25:35.902Z,93628.36
2019-04-25T18:28:14.506Z,93636.66
2019-04-25T18:30:41.855Z,93642.48
2019-04-25T18:33:11.360Z,93648.77
2019-04-25T18:35:41.646Z,93649.86
2019-04-25T18:38:08.463Z,93654.27
2019-04-25T18:40:47.122Z,93695.54
2019-04-25T18:43:24.383Z,93660.41
2019-04-25T18:45:52.873Z,93662.70
2019-04-25T18:48:19.417Z,93672.52
2019-04-25T18:50:46.739Z,93677.38
2019-04-25T18:53:35.506Z,93676.69
2019-04-25T18:56:21.029Z,93686.09
2019-04-25T18:59:06.304Z,93692.59
2019-04-25T19:01:34.751Z,93706.31
2019-04-25T19:04:22.248Z,93710.92
2019-04-25T19:06:56.327Z,93707.16
2019-04-25T19:09:17.570Z,93708.41
2019-04-25T19:11:45.058Z,93702.78
2019-04-25T19:14:11.734Z,93721.94
2019-04-25T19:16:38.817Z,93715.98
2019-04-25T19:19:06.315Z,93710.45
2019-04-25T19:21:33.344Z,93728.72
2019-04-25T19:24:00.305Z,93724.23
2019-04-25T19:26:26.844Z,93724.33
2019-04-25T19:28:53.372Z,93732.66
2019-04-25T19:31:19.917Z,93733.73
2019-04-25T19:33:47.531Z,93729.34
2019-04-25T19:36:14.089Z,93740.09
2019-04-25T19:38:41.016Z,93754.65
2019-04-25T19:41:10.361Z,93761.42
2019-04-25T19:43:54.117Z,93760.70
2019-04-25T19:46:22.580Z,93763.14
2019-04-25T19:48:49.180Z,93765.63
2019-04-25T19:51:15.752Z,93767.95
2019-04-25T19:53:43.042Z,93757.63
2019-04-25T19:56:09.649Z,93766.50
2019-04-25T19:58:36.183Z,93761.59
2019-04-25T20:01:02.903Z,93770.83
2019-04-25T20:03:33.973Z,93771.81
2019-04-25T20:06:18.886Z,93783.17
2019-04-25T20:08:59.547Z,93774.06
2019-04-25T20:11:27.981Z,93781.59
2019-04-25T20:13:54.514Z,93781.17
2019-04-25T20:16:21.362Z,93782.27
2019-04-25T20:18:47.922Z,93779.14
2019-04-25T20:21:14.464Z,93781.39
2019-04-25T20:23:41.082Z,93798.93
2019-04-25T20:26:07.643Z,93791.35
2019-04-25T20:28:34.176Z,93799.03
2019-04-25T20:31:00.943Z,93795.04
2019-04-25T20:33:27.455Z,93800.66
2019-04-25T20:35:53.989Z,93804.21
2019-04-25T20:38:20.510Z,93806.54
2019-04-25T20:40:47.691Z,93800.28
2019-04-25T20:43:14.285Z,93800.48
2019-04-25T20:45:42.734Z,93800.14
2019-04-25T20:48:09.251Z,93800.88
2019-04-25T20:50:35.783Z,93807.58
2019-04-25T20:53:02.428Z,93807.67
2019-04-25T20:55:29.747Z,93811.84
2019-04-25T20:57:57.803Z,93822.48
2019-04-25T21:00:40.468Z,93816.44
2019-04-25T21:03:07.349Z,93832.51
2019-04-25T21:05:33.889Z,93832.69
2019-04-25T21:08:02.136Z,93819.06
2019-04-25T21:10:28.807Z,93831.41
2019-04-25T21:12:55.752Z,93828.72
2019-04-25T21:15:24.310Z,93850.37
2019-04-25T21:18:10.935Z,93850.75
2019-04-25T21:20:37.469Z,93841.13
2019-04-25T21:23:04.000Z,93849.94
2019-04-25T21:25:30.563Z,93854.24
2019-04-25T21:27:57.113Z,93842.06
2019-04-25T21:30:23.637Z,93831.19
2019-04-25T21:32:53.070Z,93831.83
2019-04-25T21:35:21.012Z,93843.45
2019-04-25T21:37:47.558Z,93826.56
2019-04-25T21:40:18.876Z,93825.75
2019-04-25T21:42:50.472Z,93821.97
2019-04-25T21:45:18.191Z,93819.70
2019-04-25T21:47:45.020Z,93812.00
2019-04-25T21:50:11.957Z,93815.72
2019-04-25T21:52:39.097Z,93808.58
2019-04-25T21:55:06.326Z,93817.56
2019-04-25T21:57:33.194Z,93812.25
2019-04-25T22:00:06.120Z,93815.50
2019-04-25T22:02:29.277Z,93824.59
2019-04-25T22:04:56.670Z,93836.23
2019-04-25T22:07:23.583Z,93841.72
2019-04-25T22:09:50.504Z,93839.02
2019-04-25T22:12:18.045Z,93844.59
2019-04-25T22:14:44.578Z,93838.94
2019-04-25T22:17:11.336Z,93839.45
2019-04-25T22:19:38.412Z,93842.02
2019-04-25T22:22:05.249Z,93837.48
2019-04-25T22:24:32.542Z,93845.96
2019-04-25T22:27:00.982Z,93855.89
2019-04-25T22:29:27.508Z,93854.92
2019-04-25T22:31:56.923Z,93858.17
2019-04-25T22:34:31.417Z,93855.00
2019-04-25T22:36:58.616Z,93858.17
2019-04-25T22:39:25.251Z,93857.02
2019-04-25T22:41:52.101Z,93863.02
2019-04-25T22:44:20.940Z,93865.58
2019-04-25T22:46:48.060Z,93866.52
2019-04-25T22:49:14.587Z,93853.72
2019-04-25T22:51:41.127Z,93852.67
2019-04-25T22:54:07.962Z,93840.83
2019-04-25T22:56:34.613Z,93843.73
2019-04-25T22:59:02.837Z,93858.09
2019-04-25T23:01:43.272Z,93867.08
2019-04-25T23:04:10.105Z,93851.02
2019-04-25T23:06:37.471Z,93853.28
2019-04-25T23:09:06.147Z,93850.50
2019-04-25T23:11:33.024Z,93845.75
2019-04-25T23:14:00.255Z,93849.94
2019-04-25T23:16:26.882Z,93839.50
2019-04-25T23:18:53.430Z,93854.75
2019-04-25T23:21:19.957Z,93860.56
2019-04-25T23:23:46.492Z,93863.34
2019-04-25T23:26:17.570Z,93866.31
2019-04-25T23:28:46.124Z,93857.09
2019-04-25T23:31:14.886Z,93860.53
2019-04-25T23:33:41.527Z,93847.26
2019-04-25T23:36:09.125Z,93853.59
2019-04-25T23:38:35.696Z,93858.98
2019-04-25T23:41:02.730Z,93862.62
2019-04-25T23:43:29.270Z,93868.07
2019-04-25T23:45:55.816Z,93871.93
2019-04-25T23:48:23.079Z,93861.99
2019-04-25T23:50:49.607Z,93852.65
2019-04-25T23:53:17.035Z,93842.11
2019-04-25T23:55:43.705Z,93843.25
2019-04-25T23:58:10.518Z,93850.41
